Bridgeport Valley, California Weather observations

Data are for 10 minute period ending at time listed.
 Day   Time   Solar   Ave.   Ave.  Ave.  Vector  Max.   Baro.   Total    
  of    of     Rad.   Air    Rel.  Wind   Wind   Wind  Press.  Precip.   
Year   Day            Temp.  Hum.  Speed  Dir.   Gust                    
2015   (PST)  Kw/m2    F      %     mph   deg.    mph    mb.     in.     
-------------------------------------------------------------------------
 212    1:30   0.00   49.9    80    2.8   176     3.8   809.5    0.00 
 212    1:40   0.00   50.3    81    1.8   146     3.9   809.5    0.00 
 212    1:50   0.00   50.7    79    1.6   286     3.1   809.3    0.00 
 212    2:00   0.00   50.7    81    3.4   228     5.8   809.3    0.00 
 212    2:10   0.00   49.9    82    3.6   225     5.3   809.2    0.00 
 212    2:20   0.00   50.3    80    4.1   206     5.1   809.2    0.00 
 212    2:30   0.00   50.2    84    3.6   247     4.7   809.0    0.00 
 212    2:40   0.00   50.0    84    3.2   192     5.1   808.9    0.00 
 212    2:50   0.00   50.7    82    4.5   210     6.5   808.9    0.00 
 212    3:00   0.00   52.0    78    2.0   169     3.7   808.9    0.00 
 212    3:10   0.00   53.0    76    2.9   108     4.4   808.9    0.00 
 212    3:20   0.00   53.4    75    1.9   343     3.7   808.9    0.00 
 212    3:30   0.00   54.1    72    4.7   278     7.9   808.9    0.00 
 212    3:40   0.00   56.9    60    2.9   249     4.4   808.9    0.00 
 212    3:50   0.00   57.1    63    2.5   254     3.7   808.9    0.00 
 212    4:00   0.00   53.9    78    3.2    50     5.8   808.9    0.00 
 212    4:10   0.00   51.9    85    2.6    69     4.2   808.9    0.00 
 212    4:20   0.00   51.7    86    2.2   119     3.7   809.0    0.00 
 212    4:30   0.00   51.4    87    0.7   192     2.9   809.0    0.00 
 212    4:40   0.00   51.4    86    2.1   199     3.2   809.0    0.00 
 212    4:50   0.00   51.6    84    2.0   173     3.0   809.2    0.00 
 212    5:00   0.00   51.3    84    5.2   280     9.0   809.2    0.00 
 212    5:10   0.00   51.5    84    2.6    18     9.3   809.5    0.00 
 212    5:20   0.01   52.9    78    4.8   301     7.2   809.4    0.00 
 212    5:30   0.01   53.6    75    3.0   255     4.1   809.5    0.00 
 212    5:40   0.02   53.6    76    2.5   193     4.7   809.6    0.00 
 212    5:50   0.05   53.0    81    3.2   147     5.2   809.6    0.00 
 212    6:00   0.06   53.7    80    2.4   108     4.9   809.8    0.00 
 212    6:10   0.07   54.8    80    1.5   149     3.7   809.8    0.00 
 212    6:20   0.09   55.6    79    2.2   324     4.2   809.7    0.00 
 212    6:30   0.10   57.5    72    3.4   296     5.1   809.9    0.00 
 212    6:40   0.11   57.9    73    4.6   299     7.4   809.8    0.00 
 212    6:50   0.33   59.7    65    3.8   242     6.6   809.9    0.00 
 212    7:00   0.27   63.3    51    2.6   186     6.1   810.1    0.00 
 212    7:10   0.10   62.7    54    2.1    55     3.9   810.1    0.00 
 212    7:20   0.07   61.4    62    1.4    73     2.6   810.1    0.00 
 212    7:30   0.07   60.7    67    3.8   339     7.3   809.9    0.00 
 212    7:40   0.09   60.0    70    4.5   125     9.4   810.2    0.00 
 212    7:50   0.13   60.3    70    3.1   244     6.5   810.5    0.00 
 212    8:00   0.16   61.6    64    3.2   216     4.6   810.3    0.00 
 212    8:10   0.09   62.5    59    3.6   233     6.8   810.1    0.00 
 212    8:20   0.07   63.3    54    7.0   199    12.9   810.1    0.00 
 212    8:30   0.09   62.6    57    7.8   231    14.0   810.2    0.00 
 212    8:40   0.10   65.6    48    7.5   215    11.0   810.1    0.00 
 212    8:50   0.13   65.8    52    4.6   127     8.1   810.2    0.00 
 212    9:00   0.11   64.6    54    5.1    74    10.2   810.4    0.00 
 212    9:10   0.07   64.6    54    5.5    74    11.3   810.3    0.00 
 212    9:20   0.14   64.6    58    1.9    70     6.3   810.3    0.00 
 212    9:30   0.21   65.4    57    4.4   280     6.1   810.4    0.00 
 212    9:40   0.34   66.9    54    5.1   284     7.3   810.3    0.00 
 212    9:50   0.34   68.6    49    6.8   280     9.2   810.1    0.00 
 212   10:00   0.34   68.6    50    7.7   288    10.4   810.1    0.00 
 212   10:10   0.44   69.3    49    7.4   298    11.0   810.1    0.00 
 212   10:20   0.47   70.4    46    7.6   292    10.4   810.1    0.00 
 212   10:30   0.48   71.3    44    8.2   304    11.3   809.8    0.00 
 212   10:40   0.55   72.2    41    7.8   312    11.4   809.5    0.00 
 212   10:50   0.40   72.2    42    5.7   326     8.1   809.4    0.00 
 212   11:00   0.43   72.2    42    5.3     0     6.9   809.3    0.00 
 212   11:10   0.33   73.0    39    4.3    26     6.4   809.2    0.00 
 212   11:20   0.34   72.3    44    3.5    44     5.2   809.2    0.00 
 212   11:30   0.65   74.0    38    3.5    43     5.0   809.1    0.00 
 212   11:40   1.09   76.3    33    2.5    40     4.5   809.1    0.00 
 212   11:50   0.43   76.5    30    1.4   110     2.5   809.1    0.00 
 212   12:00   0.45   75.7    33    2.8   120     5.4   809.1    0.00 
 212   12:10   0.52   74.7    39    5.3   139    16.4   809.2    0.00 
 212   12:20   0.47   74.2    35    8.7   109    13.0   809.1    0.00 
 212   12:30   0.63   75.5    34    4.7    64     8.0   809.0    0.00 
 212   12:40   0.60   76.3    32    4.7    32    11.2   808.8    0.00 
 212   12:50   0.95   77.1    32    5.7    33     9.6   808.7    0.00 
 212   13:00   0.57   77.0    33    6.7    69    10.5   808.6    0.00 
 212   13:10   0.40   75.4    37    7.4    17    11.2   808.6    0.00 
 212   13:20   0.42   74.3    42    6.9   355    10.0   808.5    0.00 
 212   13:30   0.83   75.5    40    8.3     4    11.8   808.4    0.00 
 212   13:40   0.49   75.4    37    8.4   358    11.7   808.2    0.00 
 212   13:50   0.29   74.8    38    6.8   350    10.7   808.1    0.00 
 212   14:00   0.25   74.7    42    2.9    91     4.5   808.1    0.00 
 212   14:10   0.25   74.6    43    3.8    54     6.8   808.0    0.00 
 212   14:20   0.26   74.9    35    5.5    80    11.2   807.9    0.00 
 212   14:30   0.30   75.1    36    6.0    86    13.1   807.8    0.00 
 212   14:40   0.42   75.4    35   10.6    98    15.0   807.7    0.00 
 212   14:50   0.41   75.1    35    9.5    86    14.5   807.6    0.00 
 212   15:00   0.25   75.4    35   11.0    71    17.8   807.6    0.00 
 212   15:10   0.15   71.9    40   11.6    57    18.6   807.5    0.00 
 212   15:20   0.14   70.8    43    8.7    48    13.6   807.4    0.00 
 212   15:30   0.17   70.2    45    7.0    40     9.9   807.3    0.00 
 212   15:40   0.16   70.6    49    5.0    22     7.4   807.1    0.00 
 212   15:50   0.14   70.3    52    5.1     3     6.9   807.1    0.00 
 212   16:00   0.13   70.2    54    6.2     2     9.9   807.1    0.00 
 212   16:10   0.07   69.7    50    6.3     2    10.5   807.1    0.00 
 212   16:20   0.05   69.0    50    4.5     1     8.8   807.1    0.00 
 212   16:30   100.00  99999.0   99999  99999.0   99999   99999.0   99999.0   99999.00 
 212   16:40   100.00  99999.0   99999  99999.0   99999   99999.0   99999.0   99999.00 
 212   16:50   100.00  99999.0   99999  99999.0   99999   99999.0   99999.0   99999.00 
 212   17:00   100.00  99999.0   99999  99999.0   99999   99999.0   99999.0   99999.00 
 212   17:10   100.00  99999.0   99999  99999.0   99999   99999.0   99999.0   99999.00 
 212   17:20   100.00  99999.0   99999  99999.0   99999   99999.0   99999.0   99999.00 
 212   17:30   0.10   70.8    54    2.9   188     3.8   806.8    0.00 
 212   17:40   0.11   70.1    55    1.9   220     3.4   806.8    0.00 
 212   17:50   0.09   70.6    52    2.2   209     4.5   806.8    0.00 
 212   18:00   0.09   70.6    54    2.4   204     4.0   806.8    0.00 
 212   18:10   0.10   70.2    54    3.0   226     3.6   806.8    0.00 
 212   18:20   0.06   70.7    48    3.2   262     3.7   806.9    0.00 
 212   18:30   0.09   69.5    51    3.7   281     4.5   806.9    0.00 
 212   18:40   0.05   68.8    53    2.3   252     4.3   806.9    0.00 
 212   18:50   0.03   66.8    59    1.3    62     2.3   807.0    0.00 
 212   19:00   0.02   65.7    57    1.7    14     3.2   807.1    0.00 
 212   19:10   0.01   63.6    58    1.4   332     3.5   807.1    0.00 
 212   19:20   0.01   62.7    58    2.2   218     3.9   807.2    0.00 
 212   19:30   0.00   61.3    60    0.0     0     0.0   807.3    0.00 
 212   19:40   0.00   60.8    60    0.5   288     1.8   807.4    0.00 
 212   19:50   0.00   61.7    55    2.1   325     3.2   807.4    0.00 
 212   20:00   0.00   61.9    54    3.1   318     4.3   807.5    0.00 
 212   20:10   0.00   58.5    61    1.8   280     3.7   807.6    0.00 
 212   20:20   0.00   54.7    70    2.6   238     4.4   807.7    0.00 
 212   20:30   0.00   51.4    81    3.5   254     4.3   807.7    0.00 
 212   20:40   0.00   53.5    76    2.9   263     3.7   807.8    0.00 
 212   20:50   0.00   56.0    67    3.1   254     4.2   807.9    0.00 
 212   21:00   0.00   58.8    58    3.4   231     4.0   807.9    0.00 
 212   21:10   0.00   59.7    56    2.7   187     3.4   807.9    0.00 
 212   21:20   0.00   57.7    61    1.5   244     2.0   807.8    0.00 
 212   21:30   0.00   57.6    60    1.6   193     2.3   807.8    0.00 
 212   21:40   0.00   55.1    67    2.1   224     2.8   807.9    0.00 
 212   21:50   0.00   53.5    73    2.0   220     3.4   807.9    0.00 
 212   22:00   0.00   51.6    74    2.5   270     4.3   807.9    0.00 
 212   22:10   0.00   53.3    69    2.7   241     3.4   807.9    0.00 
 212   22:20   0.00   53.6    68    3.2   202     4.7   807.9    0.00 
 212   22:30   0.00   52.5    70    4.3   196     5.1   807.9    0.00 
 212   22:40   0.00   50.9    78    2.5   202     3.5   807.9    0.00 
 212   22:50   0.00   52.9    72    3.1   196     4.6   807.9    0.00 
 212   23:00   0.00   49.0    82    1.4   277     2.3   807.9    0.00 
 212   23:10   0.00   48.5    82    2.0   288     3.0   807.9    0.00 
 212   23:20   0.00   49.6    80    0.6   222     2.0   807.8    0.00 
 212   23:30   0.00   49.2    80    1.9   299     4.1   807.8    0.00 
 212   23:40   0.00   48.4    82    1.6   227     3.1   807.8    0.00 
 212   23:50   0.00   48.9    78    2.7   244     4.2   807.7    0.00 
 213    0:00   0.00   48.2    78    3.7   200     5.0   807.7    0.00 
 213    0:10   0.00   44.5    87    2.3   214     3.9   807.7    0.00 
 213    0:20   0.00   44.7    90    3.2   205     4.1   807.6    0.00 
 213    0:30   0.00   45.0    88    4.5   253     5.2   807.5    0.00 
 213    0:40   0.00   44.7    87    4.0   260     5.0   807.6    0.00 
 213    0:50   0.00   45.2    85    2.5   270     5.1   807.5    0.00 
 213    1:00   0.00   45.8    82    0.7    99     2.2   807.4    0.00 
 213    1:10   0.00   44.5    85    1.3   146     2.0   807.4    0.00 
 213    1:20   0.00   43.6    89    1.5   356     3.1   807.4    0.00 

Return to Bridgeport Valley graphs page.


Western Regional Climate Center,wrcc@dri.edu